sensor_id;sensor_type;location;lat;lon;timestamp;pressure;altitude;pressure_sealevel;temperature;humidity
57374;BME280;43964;53.890;25.340;2024-03-02T00:05:05;1026.8;;;5.8;68.9
57374;BME280;43964;53.890;25.340;2024-03-02T00:10:05;1026.9;;;5.7;68.9
57374;BME280;43964;53.890;25.340;2024-03-02T00:14:32;1026.9;;;5.7;68.9
57374;BME280;43964;53.890;25.340;2024-03-02T00:19:44;1026.9;;;5.7;68.9
57374;BME280;43964;53.890;25.340;2024-03-02T00:25:04;1026.9;;;5.7;68.8
57374;BME280;43964;53.890;25.340;2024-03-02T00:29:56;1026.9;;;5.7;68.8
57374;BME280;43964;53.890;25.340;2024-03-02T00:34:46;1026.9;;;5.7;68.9
57374;BME280;43964;53.890;25.340;2024-03-02T00:39:38;1026.9;;;5.7;68.9
57374;BME280;43964;53.890;25.340;2024-03-02T00:44:36;1026.8;;;5.6;68.9
57374;BME280;43964;53.890;25.340;2024-03-02T00:50:05;1026.6;;;5.5;69
57374;BME280;43964;53.890;25.340;2024-03-02T00:54:44;1026.6;;;5.5;69
57374;BME280;43964;53.890;25.340;2024-03-02T01:00:05;1026.7;;;5.4;69.1
57374;BME280;43964;53.890;25.340;2024-03-02T01:04:20;1026.7;;;5.4;69.1
57374;BME280;43964;53.890;25.340;2024-03-02T01:09:52;1026.8;;;5.4;69.1
57374;BME280;43964;53.890;25.340;2024-03-02T01:14:20;1026.8;;;5.4;69
57374;BME280;43964;53.890;25.340;2024-03-02T01:19:26;1026.7;;;5.4;69
57374;BME280;43964;53.890;25.340;2024-03-02T01:24:26;1026.7;;;5.3;69
57374;BME280;43964;53.890;25.340;2024-03-02T01:29:32;1026.6;;;5.3;69.1
57374;BME280;43964;53.890;25.340;2024-03-02T01:34:20;1026.5;;;5.2;69.1
57374;BME280;43964;53.890;25.340;2024-03-02T01:39:32;1026.5;;;5.1;69.2
57374;BME280;43964;53.890;25.340;2024-03-02T01:45:05;1026.5;;;5;69.4
57374;BME280;43964;53.890;25.340;2024-03-02T01:49:20;1026.5;;;5;69.4
57374;BME280;43964;53.890;25.340;2024-03-02T01:55:05;1026.5;;;4.9;69.6
57374;BME280;43964;53.890;25.340;2024-03-02T01:59:52;1026.5;;;4.9;69.6
57374;BME280;43964;53.890;25.340;2024-03-02T02:04:54;1026.5;;;4.9;69.5
57374;BME280;43964;53.890;25.340;2024-03-02T02:09:36;1026.4;;;4.8;69.6
57374;BME280;43964;53.890;25.340;2024-03-02T02:15:00;1026.4;;;4.8;69.6
57374;BME280;43964;53.890;25.340;2024-03-02T02:19:56;1026.5;;;4.7;69.7
57374;BME280;43964;53.890;25.340;2024-03-02T02:24:39;1026.4;;;4.7;69.7
57374;BME280;43964;53.890;25.340;2024-03-02T02:29:20;1026.4;;;4.6;69.8
57374;BME280;43964;53.890;25.340;2024-03-02T02:35:05;1026.5;;;4.5;70.1
57374;BME280;43964;53.890;25.340;2024-03-02T02:39:28;1026.5;;;4.5;70.1
57374;BME280;43964;53.890;25.340;2024-03-02T02:44:52;1026.4;;;4.5;70.2
57374;BME280;43964;53.890;25.340;2024-03-02T02:49:20;1026.4;;;4.4;70.3
57374;BME280;43964;53.890;25.340;2024-03-02T02:54:26;1026.4;;;4.4;70.4
57374;BME280;43964;53.890;25.340;2024-03-02T02:59:20;1026.3;;;4.3;70.4
57374;BME280;43964;53.890;25.340;2024-03-02T03:04:20;1026.3;;;4.3;70.4
57374;BME280;43964;53.890;25.340;2024-03-02T03:09:26;1026.2;;;4.2;70.5
57374;BME280;43964;53.890;25.340;2024-03-02T03:14:29;1026.1;;;4.2;70.5
57374;BME280;43964;53.890;25.340;2024-03-02T03:20:05;1026.2;;;4.2;70.6
57374;BME280;43964;53.890;25.340;2024-03-02T03:24:48;1026.2;;;4.2;70.6
57374;BME280;43964;53.890;25.340;2024-03-02T03:30:05;1026;;;4.1;70.8
57374;BME280;43964;53.890;25.340;2024-03-02T03:34:52;1026;;;4.1;70.8
57374;BME280;43964;53.890;25.340;2024-03-02T03:39:56;1026;;;4.1;70.9
57374;BME280;43964;53.890;25.340;2024-03-02T03:44:30;1026;;;4;71
57374;BME280;43964;53.890;25.340;2024-03-02T03:49:32;1026;;;4;71.1
57374;BME280;43964;53.890;25.340;2024-03-02T03:55:07;1026;;;4;70.9
57374;BME280;43964;53.890;25.340;2024-03-02T04:00:05;1026.1;;;4;70.9
57374;BME280;43964;53.890;25.340;2024-03-02T04:04:44;1026.1;;;4;70.9
57374;BME280;43964;53.890;25.340;2024-03-02T04:10:05;1026.1;;;4;70.8
57374;BME280;43964;53.890;25.340;2024-03-02T04:14:57;1026.1;;;4;70.8
57374;BME280;43964;53.890;25.340;2024-03-02T04:19:52;1026.1;;;4;70.7
57374;BME280;43964;53.890;25.340;2024-03-02T04:25:05;1026.2;;;4;70.7
57374;BME280;43964;53.890;25.340;2024-03-02T04:29:26;1026.2;;;4;70.7
57374;BME280;43964;53.890;25.340;2024-03-02T04:34:56;1026.2;;;4;70.7
57374;BME280;43964;53.890;25.340;2024-03-02T04:39:38;1026.3;;;4;70.6
57374;BME280;43964;53.890;25.340;2024-03-02T04:44:20;1026.3;;;4;70.5
57374;BME280;43964;53.890;25.340;2024-03-02T04:49:44;1026.3;;;4;70.6
57374;BME280;43964;53.890;25.340;2024-03-02T04:54:46;1026.3;;;4;70.4
57374;BME280;43964;53.890;25.340;2024-03-02T04:59:20;1026.4;;;4.1;70.3
57374;BME280;43964;53.890;25.340;2024-03-02T05:09:52;1026.4;;;3.9;70.3
57374;BME280;43964;53.890;25.340;2024-03-02T05:14:20;1026.4;;;4.1;70.2
57374;BME280;43964;53.890;25.340;2024-03-02T05:19:20;1026.4;;;4.1;70.2
57374;BME280;43964;53.890;25.340;2024-03-02T05:24:45;1026.4;;;4.1;70
57374;BME280;43964;53.890;25.340;2024-03-02T05:29:56;1026.4;;;4.2;69.8
57374;BME280;43964;53.890;25.340;2024-03-02T05:34:36;1026.4;;;4.3;69.6
57374;BME280;43964;53.890;25.340;2024-03-02T05:39:57;1026.4;;;4.5;69.5
57374;BME280;43964;53.890;25.340;2024-03-02T05:44:53;1026.4;;;4.6;69.3
57374;BME280;43964;53.890;25.340;2024-03-02T05:59:57;1026.5;;;5.1;68.4
57374;BME280;43964;53.890;25.340;2024-03-02T06:04:48;1026.4;;;5.2;67.8
57374;BME280;43964;53.890;25.340;2024-03-02T06:09:59;1026.4;;;5.3;67.8
57374;BME280;43964;53.890;25.340;2024-03-02T06:15:00;1026.4;;;5.4;67.2
57374;BME280;43964;53.890;25.340;2024-03-02T06:19:45;1026.5;;;5.6;66.7
57374;BME280;43964;53.890;25.340;2024-03-02T06:24:21;1026.5;;;5.8;66.2
57374;BME280;43964;53.890;25.340;2024-03-02T06:29:29;1026.6;;;6;65.7
57374;BME280;43964;53.890;25.340;2024-03-02T06:34:49;1026.6;;;6;65.4
57374;BME280;43964;53.890;25.340;2024-03-02T06:40:07;1026.5;;;6;65.3
57374;BME280;43964;53.890;25.340;2024-03-02T06:45:07;1026.5;;;5.9;65.2
57374;BME280;43964;53.890;25.340;2024-03-02T06:49:29;1026.5;;;5.9;65.2
57374;BME280;43964;53.890;25.340;2024-03-02T06:55:05;1026.5;;;6.1;64.9
57374;BME280;43964;53.890;25.340;2024-03-02T06:59:39;1026.5;;;6.1;64.9
57374;BME280;43964;53.890;25.340;2024-03-02T07:04:59;1026.5;;;6.2;64.4
57374;BME280;43964;53.890;25.340;2024-03-02T07:09:21;1026.5;;;6.2;64.1
57374;BME280;43964;53.890;25.340;2024-03-02T07:14:59;1026.5;;;6.4;63.8
57374;BME280;43964;53.890;25.340;2024-03-02T07:19:55;1026.5;;;6.6;63.5
57374;BME280;43964;53.890;25.340;2024-03-02T07:25:07;1026.4;;;6.9;62.9
57374;BME280;43964;53.890;25.340;2024-03-02T07:29:47;1026.4;;;6.9;62.9
57374;BME280;43964;53.890;25.340;2024-03-02T07:34:59;1026.4;;;7;62.7
57374;BME280;43964;53.890;25.340;2024-03-02T07:39:48;1026.4;;;7;62.4
57374;BME280;43964;53.890;25.340;2024-03-02T07:49:21;1026.6;;;7.2;61.5
57374;BME280;43964;53.890;25.340;2024-03-02T07:54:29;1026.5;;;7.4;61.8
57374;BME280;43964;53.890;25.340;2024-03-02T07:59:21;1026.5;;;7.8;61.2
57374;BME280;43964;53.890;25.340;2024-03-02T08:04:29;1026.5;;;8.1;60.6
57374;BME280;43964;53.890;25.340;2024-03-02T08:09:55;1026.6;;;8.1;59.8
57374;BME280;43964;53.890;25.340;2024-03-02T08:15:07;1026.5;;;8.1;59.7
57374;BME280;43964;53.890;25.340;2024-03-02T08:20:07;1026.6;;;8.3;59.4
57374;BME280;43964;53.890;25.340;2024-03-02T08:24:35;1026.6;;;8.3;59.4
57374;BME280;43964;53.890;25.340;2024-03-02T08:29:29;1026.6;;;8.5;59.5
57374;BME280;43964;53.890;25.340;2024-03-02T08:35:07;1026.7;;;9;58.4
57374;BME280;43964;53.890;25.340;2024-03-02T08:39:57;1026.7;;;9;58.4
57374;BME280;43964;53.890;25.340;2024-03-02T08:44:31;1026.7;;;9.2;58.1
57374;BME280;43964;53.890;25.340;2024-03-02T08:49:47;1026.7;;;9.4;57.7
57374;BME280;43964;53.890;25.340;2024-03-02T08:54:21;1026.6;;;9.5;57.2
57374;BME280;43964;53.890;25.340;2024-03-02T08:59:47;1026.6;;;9.6;56.1
57374;BME280;43964;53.890;25.340;2024-03-02T09:04:21;1026.6;;;9.6;55
57374;BME280;43964;53.890;25.340;2024-03-02T09:09:59;1026.6;;;9.7;54.5
57374;BME280;43964;53.890;25.340;2024-03-02T09:15:07;1026.6;;;10;53.9
57374;BME280;43964;53.890;25.340;2024-03-02T09:19:55;1026.6;;;10;53.9
57374;BME280;43964;53.890;25.340;2024-03-02T09:24:51;1026.7;;;10;53.4
57374;BME280;43964;53.890;25.340;2024-03-02T09:29:21;1026.6;;;10.1;53.3
57374;BME280;43964;53.890;25.340;2024-03-02T09:34:27;1026.6;;;10.1;53.2
57374;BME280;43964;53.890;25.340;2024-03-02T09:39:35;1026.5;;;10.2;53.3
57374;BME280;43964;53.890;25.340;2024-03-02T09:44:21;1026.5;;;10.1;52.7
57374;BME280;43964;53.890;25.340;2024-03-02T09:49:47;1026.5;;;10.1;52.3
57374;BME280;43964;53.890;25.340;2024-03-02T09:55:07;1026.4;;;10.4;52
57374;BME280;43964;53.890;25.340;2024-03-02T09:59:41;1026.4;;;10.4;52
57374;BME280;43964;53.890;25.340;2024-03-02T10:05:07;1026.3;;;10.5;51.5
57374;BME280;43964;53.890;25.340;2024-03-02T10:09:49;1026.3;;;10.5;51.5
57374;BME280;43964;53.890;25.340;2024-03-02T10:15:02;1026.4;;;10.6;50.6
57374;BME280;43964;53.890;25.340;2024-03-02T10:19:37;1026.3;;;10.8;49.9
57374;BME280;43964;53.890;25.340;2024-03-02T10:24:47;1026.3;;;10.9;49.6
57374;BME280;43964;53.890;25.340;2024-03-02T10:30:07;1026.2;;;11;49.7
57374;BME280;43964;53.890;25.340;2024-03-02T10:35:07;1026.1;;;11.2;49.5
57374;BME280;43964;53.890;25.340;2024-03-02T10:39:21;1026.1;;;11.2;49.5
57374;BME280;43964;53.890;25.340;2024-03-02T10:44:49;1026.1;;;11.4;49.4
57374;BME280;43964;53.890;25.340;2024-03-02T10:55:07;1026;;;11.7;48.9
57374;BME280;43964;53.890;25.340;2024-03-02T11:00:07;1025.9;;;11.8;48.6
57374;BME280;43964;53.890;25.340;2024-03-02T11:04:21;1025.9;;;11.8;48.6
57374;BME280;43964;53.890;25.340;2024-03-02T11:09:22;1025.9;;;11.9;48.1
57374;BME280;43964;53.890;25.340;2024-03-02T11:14:21;1025.9;;;11.9;47.9
57374;BME280;43964;53.890;25.340;2024-03-02T11:19:21;1025.8;;;11.9;47.1
57374;BME280;43964;53.890;25.340;2024-03-02T11:24:35;1025.8;;;12;46.2
57374;BME280;43964;53.890;25.340;2024-03-02T11:30:07;1025.7;;;12.1;45.7
57374;BME280;43964;53.890;25.340;2024-03-02T11:34:28;1025.7;;;12.1;45.7
57374;BME280;43964;53.890;25.340;2024-03-02T11:40:05;1025.8;;;12.2;45.8
57374;BME280;43964;53.890;25.340;2024-03-02T11:44:42;1025.8;;;12.2;45.8
57374;BME280;43964;53.890;25.340;2024-03-02T11:49:57;1025.7;;;12.2;46.2
57374;BME280;43964;53.890;25.340;2024-03-02T11:54:39;1025.7;;;12.3;46.2
57374;BME280;43964;53.890;25.340;2024-03-02T11:59:45;1025.7;;;12.4;45.9
57374;BME280;43964;53.890;25.340;2024-03-02T12:05:05;1025.7;;;12.3;44.9
57374;BME280;43964;53.890;25.340;2024-03-02T12:10:05;1025.8;;;12.3;44.8
57374;BME280;43964;53.890;25.340;2024-03-02T12:14:50;1025.8;;;12.3;44.8
57374;BME280;43964;53.890;25.340;2024-03-02T12:20:06;1025.7;;;12.3;43
57374;BME280;43964;53.890;25.340;2024-03-02T12:25:05;1025.7;;;12.4;43.2
57374;BME280;43964;53.890;25.340;2024-03-02T12:29:53;1025.7;;;12.4;43.2
57374;BME280;43964;53.890;25.340;2024-03-02T12:35:05;1025.6;;;12.5;43.5
57374;BME280;43964;53.890;25.340;2024-03-02T12:39:21;1025.6;;;12.5;43.5
57374;BME280;43964;53.890;25.340;2024-03-02T12:44:31;1025.6;;;12.6;43.4
57374;BME280;43964;53.890;25.340;2024-03-02T12:49:33;1025.5;;;12.6;42.6
57374;BME280;43964;53.890;25.340;2024-03-02T12:55:05;1025.5;;;12.5;41.9
57374;BME280;43964;53.890;25.340;2024-03-02T12:59:58;1025.5;;;12.5;41.9
57374;BME280;43964;53.890;25.340;2024-03-02T13:04:33;1025.5;;;12.4;41.8
57374;BME280;43964;53.890;25.340;2024-03-02T13:09:35;1025.4;;;12.4;41.7
57374;BME280;43964;53.890;25.340;2024-03-02T13:15:08;1025.4;;;12.2;42.2
57374;BME280;43964;53.890;25.340;2024-03-02T13:19:53;1025.4;;;12.2;42.2
57374;BME280;43964;53.890;25.340;2024-03-02T13:24:21;1025.4;;;12.1;42.3
57374;BME280;43964;53.890;25.340;2024-03-02T13:29:37;1025.4;;;12.1;42.3
57374;BME280;43964;53.890;25.340;2024-03-02T13:34:47;1025.3;;;12.1;42.2
57374;BME280;43964;53.890;25.340;2024-03-02T13:39:57;1025.3;;;12.1;41.9
57374;BME280;43964;53.890;25.340;2024-03-02T13:44:37;1025.4;;;12;42.1
57374;BME280;43964;53.890;25.340;2024-03-02T13:50:03;1025.3;;;12;42
57374;BME280;43964;53.890;25.340;2024-03-02T13:54:41;1025.3;;;12;42
57374;BME280;43964;53.890;25.340;2024-03-02T13:59:57;1025.3;;;11.9;42.1
57374;BME280;43964;53.890;25.340;2024-03-02T14:04:39;1025.4;;;11.8;42
57374;BME280;43964;53.890;25.340;2024-03-02T14:09:57;1025.3;;;11.7;41.7
57374;BME280;43964;53.890;25.340;2024-03-02T14:14:45;1025.3;;;11.6;41.6
57374;BME280;43964;53.890;25.340;2024-03-02T14:19:47;1025.3;;;11.6;41.7
57374;BME280;43964;53.890;25.340;2024-03-02T14:24:45;1025.3;;;11.6;41.7
57374;BME280;43964;53.890;25.340;2024-03-02T14:29:37;1025.3;;;11.5;41.7
57374;BME280;43964;53.890;25.340;2024-03-02T14:34:27;1025.3;;;11.4;41.9
57374;BME280;43964;53.890;25.340;2024-03-02T14:39:27;1025.3;;;11.3;42
57374;BME280;43964;53.890;25.340;2024-03-02T14:44:53;1025.3;;;11.2;42.1
57374;BME280;43964;53.890;25.340;2024-03-02T14:50:05;1025.2;;;11;42.7
57374;BME280;43964;53.890;25.340;2024-03-02T14:55:05;1025.2;;;10.9;42.8
57374;BME280;43964;53.890;25.340;2024-03-02T14:59:27;1025.2;;;10.9;42.8
57374;BME280;43964;53.890;25.340;2024-03-02T15:04:45;1025.2;;;10.8;42.9
57374;BME280;43964;53.890;25.340;2024-03-02T15:10:05;1025.2;;;10.6;42.9
57374;BME280;43964;53.890;25.340;2024-03-02T15:15:05;1025.2;;;10.4;43
57374;BME280;43964;53.890;25.340;2024-03-02T15:19:37;1025.2;;;10.4;43
57374;BME280;43964;53.890;25.340;2024-03-02T15:24:45;1025.2;;;10.3;43.1
57374;BME280;43964;53.890;25.340;2024-03-02T15:29:38;1025.2;;;10.3;43.1
57374;BME280;43964;53.890;25.340;2024-03-02T15:35:05;1025.2;;;10.1;43.2
57374;BME280;43964;53.890;25.340;2024-03-02T15:39:53;1025.2;;;10.1;43.2
57374;BME280;43964;53.890;25.340;2024-03-02T15:45:05;1025.2;;;10;43.5
57374;BME280;43964;53.890;25.340;2024-03-02T15:49:39;1025.2;;;10;43.5
57374;BME280;43964;53.890;25.340;2024-03-02T15:54:21;1025.2;;;9.8;43.8
57374;BME280;43964;53.890;25.340;2024-03-02T15:59:27;1025.3;;;9.7;43.9
57374;BME280;43964;53.890;25.340;2024-03-02T16:04:27;1025.3;;;9.7;44
57374;BME280;43964;53.890;25.340;2024-03-02T16:14:27;1025.3;;;9.5;44.1
57374;BME280;43964;53.890;25.340;2024-03-02T16:19:29;1025.4;;;9.1;44.4
57374;BME280;43964;53.890;25.340;2024-03-02T16:25:05;1025.4;;;8.9;44.8
57374;BME280;43964;53.890;25.340;2024-03-02T16:30:05;1025.4;;;8.8;45
57374;BME280;43964;53.890;25.340;2024-03-02T16:34:33;1025.4;;;8.8;45
57374;BME280;43964;53.890;25.340;2024-03-02T16:39:23;1025.5;;;8.8;45.3
57374;BME280;43964;53.890;25.340;2024-03-02T16:45:05;1025.5;;;8.6;45.5
57374;BME280;43964;53.890;25.340;2024-03-02T16:49:57;1025.5;;;8.6;45.5
57374;BME280;43964;53.890;25.340;2024-03-02T16:54:37;1025.6;;;8.6;45.9
57374;BME280;43964;53.890;25.340;2024-03-02T17:00:05;1025.6;;;8.7;46
57374;BME280;43964;53.890;25.340;2024-03-02T17:04:37;1025.6;;;8.7;46
57374;BME280;43964;53.890;25.340;2024-03-02T17:10:05;1025.7;;;8.7;46
57374;BME280;43964;53.890;25.340;2024-03-02T17:14:39;1025.7;;;8.7;46
57374;BME280;43964;53.890;25.340;2024-03-02T17:20:07;1025.7;;;8.6;46.1
57374;BME280;43964;53.890;25.340;2024-03-02T17:24:45;1025.7;;;8.6;46.1
57374;BME280;43964;53.890;25.340;2024-03-02T17:29:56;1025.7;;;8.6;46.3
57374;BME280;43964;53.890;25.340;2024-03-02T17:34:21;1025.7;;;8.6;46.5
57374;BME280;43964;53.890;25.340;2024-03-02T17:39:55;1025.7;;;8.5;46.9
57374;BME280;43964;53.890;25.340;2024-03-02T17:44:27;1025.8;;;8.5;47.1
57374;BME280;43964;53.890;25.340;2024-03-02T17:50:07;1025.9;;;8.3;47.8
57374;BME280;43964;53.890;25.340;2024-03-02T17:54:21;1025.9;;;8.3;47.8
57374;BME280;43964;53.890;25.340;2024-03-02T17:59:35;1025.9;;;8.3;48.2
57374;BME280;43964;53.890;25.340;2024-03-02T18:05:08;1026;;;8.3;49.1
57374;BME280;43964;53.890;25.340;2024-03-02T18:09:21;1026;;;8.3;49.1
57374;BME280;43964;53.890;25.340;2024-03-02T18:15:07;1026;;;8.3;49.5
57374;BME280;43964;53.890;25.340;2024-03-02T18:19:55;1026;;;8.3;49.5
57374;BME280;43964;53.890;25.340;2024-03-02T18:24:57;1026.1;;;8.3;49.5
57374;BME280;43964;53.890;25.340;2024-03-02T18:29:37;1026.1;;;8.3;49.6
57374;BME280;43964;53.890;25.340;2024-03-02T18:34:39;1026.2;;;8.3;49.7
57374;BME280;43964;53.890;25.340;2024-03-02T18:40:07;1026.2;;;8.2;50.1
57374;BME280;43964;53.890;25.340;2024-03-02T18:45:07;1026.2;;;8.1;50.5
57374;BME280;43964;53.890;25.340;2024-03-02T18:49:41;1026.2;;;8.1;50.5
57374;BME280;43964;53.890;25.340;2024-03-02T18:55:09;1026.2;;;7.9;50.7
57374;BME280;43964;53.890;25.340;2024-03-02T18:59:47;1026.2;;;7.9;50.7
57374;BME280;43964;53.890;25.340;2024-03-02T19:04:53;1026.2;;;7.8;50.7
57374;BME280;43964;53.890;25.340;2024-03-02T19:10:07;1026.2;;;7.6;50.8
57374;BME280;43964;53.890;25.340;2024-03-02T19:14:27;1026.2;;;7.6;50.8
57374;BME280;43964;53.890;25.340;2024-03-02T19:19:21;1026.2;;;7.6;50.9
57374;BME280;43964;53.890;25.340;2024-03-02T19:24:27;1026.2;;;7.5;51.1
57374;BME280;43964;53.890;25.340;2024-03-02T19:29:21;1026.2;;;7.4;51.3
57374;BME280;43964;53.890;25.340;2024-03-02T19:34:27;1026.2;;;7.4;51.8
57374;BME280;43964;53.890;25.340;2024-03-02T19:39:37;1026.2;;;7.3;52.2
57374;BME280;43964;53.890;25.340;2024-03-02T19:44:22;1026.2;;;7.3;52.4
57374;BME280;43964;53.890;25.340;2024-03-02T19:50:09;1026.2;;;7.2;52.8
57374;BME280;43964;53.890;25.340;2024-03-02T19:54:55;1026.2;;;7.2;52.8
57374;BME280;43964;53.890;25.340;2024-03-02T19:59:21;1026.3;;;7.1;52.7
57374;BME280;43964;53.890;25.340;2024-03-02T20:04:21;1026.2;;;7.1;52.8
57374;BME280;43964;53.890;25.340;2024-03-02T20:09:49;1026.2;;;7;52.9
57374;BME280;43964;53.890;25.340;2024-03-02T20:14:59;1026.3;;;7;53.1
57374;BME280;43964;53.890;25.340;2024-03-02T20:19:21;1026.3;;;6.9;53.2
57374;BME280;43964;53.890;25.340;2024-03-02T20:24:59;1026.3;;;6.8;53.4
57374;BME280;43964;53.890;25.340;2024-03-02T20:29:55;1026.3;;;6.8;53.9
57374;BME280;43964;53.890;25.340;2024-03-02T20:35:09;1026.4;;;6.7;54.5
57374;BME280;43964;53.890;25.340;2024-03-02T20:39:39;1026.4;;;6.7;54.5
57374;BME280;43964;53.890;25.340;2024-03-02T20:44:41;1026.5;;;6.6;54.8
57374;BME280;43964;53.890;25.340;2024-03-02T20:49:27;1026.5;;;6.5;55
57374;BME280;43964;53.890;25.340;2024-03-02T20:54:21;1026.5;;;6.5;54.9
57374;BME280;43964;53.890;25.340;2024-03-02T20:59:21;1026.5;;;6.4;55
57374;BME280;43964;53.890;25.340;2024-03-02T21:04:21;1026.6;;;6.4;55
57374;BME280;43964;53.890;25.340;2024-03-02T21:09:39;1026.6;;;6.3;55.2
57374;BME280;43964;53.890;25.340;2024-03-02T21:14:21;1026.5;;;6.2;55.3
57374;BME280;43964;53.890;25.340;2024-03-02T21:19:55;1026.5;;;6.2;55.6
57374;BME280;43964;53.890;25.340;2024-03-02T21:25:09;1026.5;;;6.1;56.3
57374;BME280;43964;53.890;25.340;2024-03-02T21:30:09;1026.5;;;6;56.5
57374;BME280;43964;53.890;25.340;2024-03-02T21:34:55;1026.5;;;6;56.5
57374;BME280;43964;53.890;25.340;2024-03-02T21:39:49;1026.4;;;5.9;56.8
57374;BME280;43964;53.890;25.340;2024-03-02T21:44:49;1026.5;;;5.9;56.8
57374;BME280;43964;53.890;25.340;2024-03-02T21:49:59;1026.4;;;5.8;56.8
57374;BME280;43964;53.890;25.340;2024-03-02T21:54:39;1026.4;;;5.8;56.8
57374;BME280;43964;53.890;25.340;2024-03-02T21:59:49;1026.4;;;5.7;56.9
57374;BME280;43964;53.890;25.340;2024-03-02T22:04:41;1026.4;;;5.7;56.9
57374;BME280;43964;53.890;25.340;2024-03-02T22:10:09;1026.4;;;5.6;57.1
57374;BME280;43964;53.890;25.340;2024-03-02T22:14:21;1026.4;;;5.6;57.1
57374;BME280;43964;53.890;25.340;2024-03-02T22:19:51;1026.4;;;5.5;57.4
57374;BME280;43964;53.890;25.340;2024-03-02T22:24:21;1026.4;;;5.5;57.6
57374;BME280;43964;53.890;25.340;2024-03-02T22:29:55;1026.4;;;5.4;57.9
57374;BME280;43964;53.890;25.340;2024-03-02T22:34:27;1026.4;;;5.4;58
57374;BME280;43964;53.890;25.340;2024-03-02T22:39:21;1026.5;;;5.3;58
57374;BME280;43964;53.890;25.340;2024-03-02T22:44:27;1026.5;;;5.3;57.9
57374;BME280;43964;53.890;25.340;2024-03-02T22:49:27;1026.5;;;5.3;57.9
57374;BME280;43964;53.890;25.340;2024-03-02T22:54:39;1026.5;;;5.3;57.9
57374;BME280;43964;53.890;25.340;2024-03-02T22:59:35;1026.5;;;5.2;57.9
57374;BME280;43964;53.890;25.340;2024-03-02T23:05:07;1026.5;;;5.2;57.9
57374;BME280;43964;53.890;25.340;2024-03-02T23:09:27;1026.5;;;5.2;57.9
57374;BME280;43964;53.890;25.340;2024-03-02T23:15:07;1026.5;;;5.1;58.2
57374;BME280;43964;53.890;25.340;2024-03-02T23:19:53;1026.5;;;5.1;58.2
57374;BME280;43964;53.890;25.340;2024-03-02T23:24:59;1026.5;;;5;58.3
57374;BME280;43964;53.890;25.340;2024-03-02T23:29:41;1026.4;;;5;58.3
57374;BME280;43964;53.890;25.340;2024-03-02T23:34:47;1026.4;;;5;58.4
57374;BME280;43964;53.890;25.340;2024-03-02T23:40:08;1026.4;;;4.9;58.3
57374;BME280;43964;53.890;25.340;2024-03-02T23:45:08;1026.4;;;4.9;58.3
57374;BME280;43964;53.890;25.340;2024-03-02T23:49:45;1026.4;;;4.9;58.3
57374;BME280;43964;53.890;25.340;2024-03-02T23:55:07;1026.4;;;4.8;58.3
